Airfield :
LOGIN :

Register | Disclaimer

   EN    FR    IT 

 










Legend :    VFR   Marginal VFR   IFR   Intensive IFR   Very Intensive IFR
Visi :
Ceiling :
>= 8 km
>= 3000ft
5 to 8 km
1000 to 3000 ft
1500m to 5 km
500 to 1000 ft
800 to 1500m
200 to 500 ft
< 800m
< 200 ft
Symbols :   Thunderstorms  Fog  Heavy snow  Heavy precipitations  Wind > 20 kt
SIGMETs :     Misc.  Thunderstorms  Icing  Turbulence  Mountain Waves  Volcanic Ashes







- Airport Elevation : 1090 ft
- IATA code : CFE
- Download approach charts


LFLC - Clermont-Ferrand Auvergne

CURRENT METAR :
  • 201500Z AUTO 02008KT 330V060 CAVOK 23/06 Q1025 NOSIG

EXPIRED METARs :
  • 201430Z AUTO 03009KT 360V080 CAVOK 23/05 Q1025 NOSIG
  • 201400Z AUTO 04007KT 350V090 CAVOK 23/07 Q1025 NOSIG
  • 201330Z AUTO 02007KT 320V080 9999 FEW060 23/06 Q1025 NOSIG
  • 201300Z AUTO 02008KT 340V080 9999 FEW058 22/07 Q1025 NOSIG
  • 201230Z AUTO 36006KT 330V050 9999 FEW056 22/08 Q1026 NOSIG

TAF TAF LFLC
Valid from the 20 at 15:00 until the 21 at 15:00 UTC


201400Z 2015/2115 36012KT CAVOK
BECMG 2021/2024 VRB02KT
ATIS : +33 4 73 62 74 38
No reported NOTAMs for that airfield.
1 SIGMET reported for the Marseille FIR (LFMM) :
 
Severe turbulence
LFMM SIGMET 4 VALID 201400/201800 LFPW
LFMM MARSEILLE FIR/UIR SEV TURB FCST WI N4300 E00415 - N4430 E00430 - N4430 E00500 - N4300 E00530 SFC/FL050 STNR NC=



MET'MAP, your aeronautical weather chart ! - Copyright ORBIFLY December 2007 - Disclaimer

ORBIFLY MET'MAP TEAM :

Programming & Development : Alexandra Zaïnal
Concept & Development : Baudouin d'Aumeries
Co-Development & Prog : Marc-Olivier Méhu
Technical & hardware support : Manuel Goepfert

Contact : metmap@orbifly.com




SOURCES & CREDITS :

   NOAA